createdAt,value
2024-02-19T00:02:26.549Z,8.03
2024-02-19T00:05:13.855Z,7.99
2024-02-19T00:08:02.814Z,7.97
2024-02-19T00:10:50.855Z,7.96
2024-02-19T00:13:40.628Z,7.95
2024-02-19T00:16:26.825Z,7.93
2024-02-19T00:19:12.868Z,7.92
2024-02-19T00:21:58.990Z,7.92
2024-02-19T00:24:44.680Z,7.91
2024-02-19T00:27:30.369Z,7.90
2024-02-19T00:30:18.972Z,7.89
2024-02-19T00:33:04.936Z,7.87
2024-02-19T00:35:50.756Z,7.89
2024-02-19T00:38:36.889Z,7.89
2024-02-19T00:41:23.425Z,7.89
2024-02-19T00:44:09.394Z,7.88
2024-02-19T00:46:54.904Z,7.89
2024-02-19T00:49:40.561Z,7.90
2024-02-19T00:52:26.780Z,7.92
2024-02-19T00:55:12.415Z,7.94
2024-02-19T00:57:57.622Z,7.97
2024-02-19T01:00:44.018Z,8.00
2024-02-19T01:03:29.578Z,8.02
2024-02-19T01:06:14.984Z,8.06
2024-02-19T01:09:00.422Z,8.08
2024-02-19T01:11:45.983Z,8.10
2024-02-19T01:14:31.671Z,8.12
2024-02-19T01:17:17.378Z,8.13
2024-02-19T01:20:03.370Z,8.15
2024-02-19T01:22:49.005Z,8.17
2024-02-19T01:25:35.341Z,8.19
2024-02-19T01:28:21.381Z,8.20
2024-02-19T01:31:07.166Z,8.21
2024-02-19T01:33:54.342Z,8.23
2024-02-19T01:36:40.614Z,8.23
2024-02-19T01:39:26.510Z,8.25
2024-02-19T01:42:12.501Z,8.25
2024-02-19T01:44:58.157Z,8.24
2024-02-19T01:47:43.492Z,8.23
2024-02-19T01:50:31.704Z,8.23
2024-02-19T01:53:18.161Z,8.24
2024-02-19T01:56:05.395Z,8.25
2024-02-19T01:58:52.145Z,8.26
2024-02-19T02:01:38.858Z,8.27
2024-02-19T02:04:25.372Z,8.26
2024-02-19T02:07:13.173Z,8.26
2024-02-19T02:10:00.935Z,8.27
2024-02-19T02:12:46.812Z,8.25
2024-02-19T02:15:32.630Z,8.23
2024-02-19T02:18:20.261Z,8.19
2024-02-19T02:21:06.700Z,8.17
2024-02-19T02:23:52.159Z,8.17
2024-02-19T02:26:41.573Z,8.18
2024-02-19T02:29:27.058Z,8.20
2024-02-19T02:32:12.604Z,8.22
2024-02-19T02:34:58.434Z,8.23
2024-02-19T02:37:44.063Z,8.26
2024-02-19T02:40:29.688Z,8.27
2024-02-19T02:43:15.069Z,8.28
2024-02-19T02:46:00.502Z,8.32
2024-02-19T02:48:46.276Z,8.35
2024-02-19T02:51:33.033Z,8.35
2024-02-19T02:54:18.571Z,8.33
2024-02-19T02:57:04.061Z,8.33
2024-02-19T02:59:49.661Z,8.33
2024-02-19T03:02:35.307Z,8.36
2024-02-19T03:05:21.093Z,8.37
2024-02-19T03:08:06.966Z,8.38
2024-02-19T03:10:52.437Z,8.38
2024-02-19T03:13:38.762Z,8.39
2024-02-19T03:16:24.883Z,8.38
2024-02-19T03:19:14.937Z,8.38
2024-02-19T03:22:00.498Z,8.38
2024-02-19T03:24:46.265Z,8.38
2024-02-19T03:27:32.133Z,8.37
2024-02-19T03:30:18.233Z,8.36
2024-02-19T03:33:04.650Z,8.38
2024-02-19T03:35:52.313Z,8.37
2024-02-19T03:38:39.274Z,8.38
2024-02-19T03:41:25.393Z,8.38
2024-02-19T03:44:10.995Z,8.37
2024-02-19T03:46:59.361Z,8.37
2024-02-19T03:49:45.636Z,8.38
2024-02-19T03:52:31.274Z,8.40
2024-02-19T03:55:17.545Z,8.40
2024-02-19T03:58:03.088Z,8.41
2024-02-19T04:00:48.680Z,8.40
2024-02-19T04:03:34.115Z,8.35
2024-02-19T04:06:19.587Z,8.25
2024-02-19T04:09:05.058Z,8.23
2024-02-19T04:11:50.732Z,8.19
2024-02-19T04:14:36.578Z,8.15
2024-02-19T04:17:21.982Z,8.14
2024-02-19T04:20:08.908Z,8.14
2024-02-19T04:22:54.535Z,8.15
2024-02-19T04:25:40.172Z,8.13
2024-02-19T04:28:25.672Z,8.10
2024-02-19T04:31:11.451Z,8.06
2024-02-19T04:33:57.156Z,8.03
2024-02-19T04:36:43.081Z,7.99
2024-02-19T04:39:28.683Z,7.97
2024-02-19T04:42:14.141Z,7.95
2024-02-19T04:44:59.901Z,7.97
2024-02-19T04:47:45.607Z,7.97
2024-02-19T04:50:31.075Z,7.97
2024-02-19T04:53:19.843Z,7.97
2024-02-19T04:56:05.813Z,7.98
2024-02-19T04:58:51.347Z,7.99
2024-02-19T05:01:37.137Z,8.01
2024-02-19T05:04:24.449Z,8.01
2024-02-19T05:07:10.172Z,8.05
2024-02-19T05:09:56.408Z,8.08
2024-02-19T05:12:41.845Z,8.10
2024-02-19T05:15:27.341Z,8.10
2024-02-19T05:18:13.109Z,8.10
2024-02-19T05:20:58.753Z,8.10
2024-02-19T05:23:44.352Z,8.12
2024-02-19T05:26:30.151Z,8.11
2024-02-19T05:29:15.739Z,8.09
2024-02-19T05:32:01.251Z,8.10
2024-02-19T05:34:46.728Z,8.07
2024-02-19T05:37:32.353Z,8.09
2024-02-19T05:40:18.006Z,8.07
2024-02-19T05:43:03.716Z,8.09
2024-02-19T05:45:49.538Z,8.10
2024-02-19T05:48:35.325Z,8.13
2024-02-19T05:51:20.810Z,8.13
2024-02-19T05:54:06.347Z,8.15
2024-02-19T05:56:52.168Z,8.17
2024-02-19T05:59:37.832Z,8.18
2024-02-19T06:02:23.703Z,8.21
2024-02-19T06:05:10.107Z,8.24
2024-02-19T06:07:55.498Z,8.26
2024-02-19T06:10:41.001Z,8.26
2024-02-19T06:13:27.018Z,8.26
2024-02-19T06:16:12.466Z,8.29
2024-02-19T06:19:02.723Z,8.33
2024-02-19T06:21:48.257Z,8.34
2024-02-19T06:24:33.655Z,8.37
2024-02-19T06:27:20.953Z,8.37
2024-02-19T06:30:07.361Z,8.39
2024-02-19T06:32:52.895Z,8.37
2024-02-19T06:35:38.451Z,8.40
2024-02-19T06:38:23.815Z,8.40
2024-02-19T06:41:09.336Z,8.40
2024-02-19T06:43:55.198Z,8.41
2024-02-19T06:46:40.908Z,8.42
2024-02-19T06:49:26.394Z,8.42
2024-02-19T06:52:12.279Z,8.43
2024-02-19T06:54:57.953Z,8.43
2024-02-19T06:57:44.162Z,8.44
2024-02-19T07:00:29.527Z,8.43
2024-02-19T07:03:15.193Z,8.41
2024-02-19T07:06:00.945Z,8.40
2024-02-19T07:08:48.286Z,8.41
2024-02-19T07:11:37.587Z,8.39
2024-02-19T07:14:27.247Z,8.41
2024-02-19T07:17:12.418Z,8.41
2024-02-19T07:19:59.573Z,8.43
2024-02-19T07:22:45.440Z,8.43
2024-02-19T07:25:30.945Z,8.47
2024-02-19T07:28:16.477Z,8.48
2024-02-19T07:31:02.291Z,8.48
2024-02-19T07:33:48.412Z,8.51
2024-02-19T07:36:34.159Z,8.52
2024-02-19T07:39:20.792Z,8.52
2024-02-19T07:42:06.567Z,8.49
2024-02-19T07:44:52.090Z,8.49
2024-02-19T07:47:38.236Z,8.50
2024-02-19T07:50:24.129Z,8.50
2024-02-19T07:53:09.741Z,8.50
2024-02-19T07:56:06.476Z,8.50
2024-02-19T07:58:52.530Z,8.54
2024-02-19T08:01:38.285Z,8.54
2024-02-19T08:04:28.383Z,8.57
2024-02-19T08:07:13.843Z,8.58
2024-02-19T08:09:59.227Z,8.61
2024-02-19T08:12:45.015Z,8.64
2024-02-19T08:15:32.190Z,8.65
2024-02-19T08:18:18.445Z,8.65
2024-02-19T08:21:04.829Z,8.66
2024-02-19T08:23:50.194Z,8.65
2024-02-19T08:26:35.844Z,8.64
2024-02-19T08:29:21.779Z,8.63
2024-02-19T08:32:07.736Z,8.63
2024-02-19T08:34:53.288Z,8.65
2024-02-19T08:37:39.120Z,8.64
2024-02-19T08:40:24.622Z,8.65
2024-02-19T08:43:12.922Z,8.66
2024-02-19T08:45:58.501Z,8.70
2024-02-19T08:48:44.423Z,8.74
2024-02-19T08:51:30.721Z,8.79
2024-02-19T08:54:16.531Z,8.82
2024-02-19T08:57:02.072Z,8.82
2024-02-19T08:59:47.965Z,8.83
2024-02-19T09:02:33.724Z,8.83
2024-02-19T09:05:21.714Z,8.81
2024-02-19T09:08:07.875Z,8.79
2024-02-19T09:10:55.159Z,8.79
2024-02-19T09:13:42.095Z,8.80
2024-02-19T09:16:28.912Z,8.80
2024-02-19T09:19:16.730Z,8.81
2024-02-19T09:22:03.834Z,8.83
2024-02-19T09:24:51.446Z,8.89
2024-02-19T09:27:37.403Z,8.96
2024-02-19T09:30:23.720Z,9.04
2024-02-19T09:33:09.362Z,9.12
2024-02-19T09:35:55.226Z,9.17
2024-02-19T09:38:40.775Z,9.24
2024-02-19T09:41:26.387Z,9.36
2024-02-19T09:44:13.424Z,9.44
2024-02-19T09:47:05.403Z,9.45
2024-02-19T09:49:51.421Z,9.54
2024-02-19T09:52:37.327Z,9.67
2024-02-19T09:55:23.205Z,9.75
2024-02-19T09:58:09.756Z,9.73
2024-02-19T10:00:55.886Z,9.71
2024-02-19T10:03:41.447Z,9.67
2024-02-19T10:06:36.907Z,9.69
2024-02-19T10:09:23.353Z,9.76
2024-02-19T10:12:09.224Z,9.76
2024-02-19T10:14:55.105Z,9.71
2024-02-19T10:17:40.953Z,9.60
2024-02-19T10:20:26.345Z,9.55
2024-02-19T10:23:12.004Z,9.56
2024-02-19T10:25:57.464Z,9.58
2024-02-19T10:28:44.171Z,9.63
2024-02-19T10:31:32.683Z,9.71
2024-02-19T10:34:19.589Z,9.76
2024-02-19T10:37:07.358Z,9.90
2024-02-19T10:39:53.189Z,10.04
2024-02-19T10:42:39.658Z,10.07
2024-02-19T10:45:26.928Z,10.10
2024-02-19T10:48:12.756Z,10.10
2024-02-19T10:50:58.389Z,10.04
2024-02-19T10:53:43.900Z,10.00
2024-02-19T10:56:37.661Z,10.01
2024-02-19T10:59:23.134Z,10.05
2024-02-19T11:02:11.021Z,10.05
2024-02-19T11:04:59.473Z,10.04
2024-02-19T11:07:45.473Z,9.98
2024-02-19T11:10:48.938Z,9.89
2024-02-19T11:13:37.465Z,9.79
2024-02-19T11:16:28.812Z,9.73
2024-02-19T11:19:14.701Z,9.72
2024-02-19T11:22:09.603Z,9.70
2024-02-19T11:24:55.245Z,9.73
2024-02-19T11:27:41.288Z,9.75
2024-02-19T11:30:27.624Z,9.74
2024-02-19T11:33:13.684Z,9.73
2024-02-19T11:35:59.089Z,9.64
2024-02-19T11:38:44.436Z,9.54
2024-02-19T11:41:30.211Z,9.46
2024-02-19T11:44:17.917Z,9.41
2024-02-19T11:47:05.016Z,9.35
2024-02-19T11:49:50.465Z,9.27
2024-02-19T11:52:36.306Z,9.28
2024-02-19T11:55:25.067Z,9.34
2024-02-19T11:58:11.310Z,9.39
2024-02-19T12:01:03.415Z,9.43
2024-02-19T12:03:49.143Z,9.46
2024-02-19T12:06:38.462Z,9.50
2024-02-19T12:09:24.092Z,9.53
2024-02-19T12:12:11.196Z,9.56
2024-02-19T12:14:56.880Z,9.59
2024-02-19T12:17:43.156Z,9.56
2024-02-19T12:20:28.638Z,9.55
2024-02-19T12:23:15.665Z,9.54
2024-02-19T12:26:01.621Z,9.52
2024-02-19T12:28:47.377Z,9.50
2024-02-19T12:31:32.823Z,9.54
2024-02-19T12:34:18.247Z,9.58
2024-02-19T12:37:04.619Z,9.57
2024-02-19T12:39:50.166Z,9.61
2024-02-19T12:42:35.916Z,9.58
2024-02-19T12:45:21.584Z,9.52
2024-02-19T12:48:07.677Z,9.45
2024-02-19T12:50:53.464Z,9.37
2024-02-19T12:53:39.135Z,9.36
2024-02-19T12:56:24.714Z,9.34
2024-02-19T12:59:10.442Z,9.36
2024-02-19T13:01:56.230Z,9.34
2024-02-19T13:04:42.017Z,9.32
2024-02-19T13:07:27.720Z,9.34
2024-02-19T13:10:14.451Z,9.33
2024-02-19T13:13:00.196Z,9.31
2024-02-19T13:15:47.924Z,9.31
2024-02-19T13:18:34.064Z,9.28
2024-02-19T13:21:20.999Z,9.28
2024-02-19T13:24:06.994Z,9.28
2024-02-19T13:26:54.719Z,9.26
2024-02-19T13:29:40.533Z,9.25
2024-02-19T13:32:26.277Z,9.18
2024-02-19T13:35:13.239Z,9.14
2024-02-19T13:38:05.013Z,9.13
2024-02-19T13:40:51.200Z,9.12
2024-02-19T13:43:36.817Z,9.09
2024-02-19T13:46:22.304Z,9.04
2024-02-19T13:49:08.230Z,8.99
2024-02-19T13:51:53.684Z,8.94
2024-02-19T13:54:39.135Z,8.90
2024-02-19T13:57:24.495Z,8.87
2024-02-19T14:00:11.907Z,8.86
2024-02-19T14:02:57.345Z,8.83
2024-02-19T14:05:43.108Z,8.81
2024-02-19T14:08:28.814Z,8.77
2024-02-19T14:11:14.472Z,8.75
2024-02-19T14:14:02.702Z,8.69
2024-02-19T14:16:49.476Z,8.64
2024-02-19T14:19:35.549Z,8.59
2024-02-19T14:22:22.840Z,8.60
2024-02-19T14:25:12.774Z,8.63
2024-02-19T14:27:58.882Z,8.64
2024-02-19T14:30:44.762Z,8.66
2024-02-19T14:33:30.461Z,8.66
2024-02-19T14:36:16.176Z,8.65
2024-02-19T14:39:01.689Z,8.64
2024-02-19T14:41:48.494Z,8.60
2024-02-19T14:44:35.860Z,8.56
2024-02-19T14:47:21.611Z,8.52
2024-02-19T14:50:07.951Z,8.51
2024-02-19T14:52:53.414Z,8.49
2024-02-19T14:55:39.031Z,8.44
2024-02-19T14:58:24.435Z,8.41
2024-02-19T15:01:09.868Z,8.38
2024-02-19T15:03:55.416Z,8.38
2024-02-19T15:06:44.215Z,8.37
2024-02-19T15:09:29.572Z,8.35
2024-02-19T15:12:15.370Z,8.36
2024-02-19T15:15:00.929Z,8.32
2024-02-19T15:17:47.015Z,8.29
2024-02-19T15:20:32.712Z,8.29
2024-02-19T15:23:18.153Z,8.27
2024-02-19T15:26:03.949Z,8.22
2024-02-19T15:28:49.341Z,8.17
2024-02-19T15:31:37.918Z,8.05
2024-02-19T15:34:25.492Z,7.97
2024-02-19T15:37:11.595Z,7.94
2024-02-19T15:39:58.217Z,7.91
2024-02-19T15:42:45.158Z,7.89
2024-02-19T15:45:31.240Z,7.84
2024-02-19T15:48:17.275Z,7.81
2024-02-19T15:51:02.932Z,7.79
2024-02-19T15:53:50.321Z,7.76
2024-02-19T15:56:37.099Z,7.73
2024-02-19T15:59:23.011Z,7.70
2024-02-19T16:02:09.157Z,7.68
2024-02-19T16:04:55.049Z,7.67
2024-02-19T16:07:41.024Z,7.65
2024-02-19T16:10:26.387Z,7.65
2024-02-19T16:13:11.989Z,7.61
2024-02-19T16:16:00.766Z,7.59
2024-02-19T16:18:47.084Z,7.55
2024-02-19T16:21:33.363Z,7.52
2024-02-19T16:24:18.790Z,7.49
2024-02-19T16:27:07.075Z,7.43
2024-02-19T16:29:52.787Z,7.39
2024-02-19T16:32:38.157Z,7.33
2024-02-19T16:35:24.439Z,7.31
2024-02-19T16:38:10.208Z,7.27
2024-02-19T16:40:57.529Z,7.23
2024-02-19T16:43:43.154Z,7.21
2024-02-19T16:46:29.979Z,7.19
2024-02-19T16:49:15.474Z,7.17
2024-02-19T16:52:00.830Z,7.13
2024-02-19T16:54:46.296Z,7.11
2024-02-19T16:57:31.762Z,7.04
2024-02-19T17:00:17.403Z,7.03
2024-02-19T17:03:03.743Z,7.02
2024-02-19T17:06:06.345Z,7.00
2024-02-19T17:08:51.763Z,6.98
2024-02-19T17:11:37.341Z,6.99
2024-02-19T17:14:23.163Z,6.99
2024-02-19T17:17:08.698Z,7.03
2024-02-19T17:19:55.431Z,7.04
2024-02-19T17:22:40.817Z,7.03
2024-02-19T17:25:26.841Z,7.04
2024-02-19T17:28:12.635Z,7.03
2024-02-19T17:30:58.422Z,7.04
2024-02-19T17:33:44.089Z,7.04
2024-02-19T17:36:29.796Z,6.99
2024-02-19T17:39:15.587Z,6.96
2024-02-19T17:42:02.469Z,6.93
2024-02-19T17:44:48.274Z,6.90
2024-02-19T17:47:34.029Z,6.86
2024-02-19T17:50:22.570Z,6.81
2024-02-19T17:53:08.235Z,6.78
2024-02-19T17:55:54.829Z,6.75
2024-02-19T17:58:41.517Z,6.72
2024-02-19T18:01:27.479Z,6.74
2024-02-19T18:04:13.655Z,6.75
2024-02-19T18:07:01.760Z,6.81
2024-02-19T18:09:48.094Z,6.86
2024-02-19T18:12:33.756Z,6.89
2024-02-19T18:15:22.780Z,6.94
2024-02-19T18:18:10.234Z,6.99
2024-02-19T18:20:56.261Z,7.03
2024-02-19T18:23:41.829Z,7.02
2024-02-19T18:26:29.185Z,7.03
2024-02-19T18:29:17.177Z,7.02
2024-02-19T18:32:03.641Z,7.03
2024-02-19T18:34:49.421Z,7.01
2024-02-19T18:37:35.015Z,7.00
2024-02-19T18:40:20.326Z,6.97
2024-02-19T18:43:06.067Z,6.94
2024-02-19T18:45:53.113Z,6.93
2024-02-19T18:48:38.989Z,6.92
2024-02-19T18:51:28.336Z,6.87
2024-02-19T18:54:14.847Z,6.81
2024-02-19T18:57:02.357Z,6.79
2024-02-19T18:59:48.098Z,6.75
2024-02-19T19:02:35.405Z,6.72
2024-02-19T19:05:20.954Z,6.67
2024-02-19T19:08:06.555Z,6.64
2024-02-19T19:10:52.161Z,6.63
2024-02-19T19:13:41.511Z,6.64
2024-02-19T19:16:27.787Z,6.64
2024-02-19T19:19:13.839Z,6.67
2024-02-19T19:22:00.379Z,6.71
2024-02-19T19:24:47.908Z,6.75
2024-02-19T19:27:34.368Z,6.79
2024-02-19T19:30:20.166Z,6.88
2024-02-19T19:33:06.291Z,6.94
2024-02-19T19:35:53.234Z,6.99
2024-02-19T19:38:39.057Z,7.03
2024-02-19T19:41:27.305Z,7.07
2024-02-19T19:44:18.144Z,7.10
2024-02-19T19:47:03.789Z,7.12
2024-02-19T19:49:52.876Z,7.12
2024-02-19T19:52:40.010Z,7.14
2024-02-19T19:55:25.960Z,7.13
2024-02-19T19:58:17.360Z,7.12
2024-02-19T20:01:11.012Z,7.09
2024-02-19T20:03:56.517Z,7.04
2024-02-19T20:06:45.057Z,6.99
2024-02-19T20:09:31.177Z,6.94
2024-02-19T20:12:19.005Z,6.93
2024-02-19T20:15:06.475Z,6.90
2024-02-19T20:17:53.558Z,6.90
2024-02-19T20:20:39.986Z,6.89
2024-02-19T20:23:27.067Z,6.88
2024-02-19T20:26:14.612Z,6.88
2024-02-19T20:29:00.241Z,6.87
2024-02-19T20:31:46.692Z,6.88
2024-02-19T20:34:34.796Z,6.87
2024-02-19T20:37:21.178Z,6.89
2024-02-19T20:40:07.752Z,6.89
2024-02-19T20:42:58.867Z,6.92
2024-02-19T20:45:48.034Z,6.91
2024-02-19T20:48:34.683Z,6.92
2024-02-19T20:51:20.487Z,6.94
2024-02-19T20:54:07.473Z,6.94
2024-02-19T20:56:53.279Z,6.96
2024-02-19T20:59:39.548Z,6.93
2024-02-19T21:02:25.382Z,6.94
2024-02-19T21:05:14.980Z,6.95
2024-02-19T21:08:01.491Z,6.97
2024-02-19T21:10:49.247Z,6.97
2024-02-19T21:13:36.716Z,6.99
2024-02-19T21:16:23.336Z,7.02
2024-02-19T21:19:08.804Z,7.03
2024-02-19T21:21:54.475Z,7.05
2024-02-19T21:24:40.341Z,7.05
2024-02-19T21:27:27.000Z,7.07
2024-02-19T21:30:13.110Z,7.08
2024-02-19T21:32:58.850Z,7.07
2024-02-19T21:35:47.675Z,7.06
2024-02-19T21:38:33.745Z,7.05
2024-02-19T21:41:19.384Z,7.05
2024-02-19T21:44:06.542Z,7.08
2024-02-19T21:46:52.376Z,7.06
2024-02-19T21:49:38.053Z,7.06
2024-02-19T21:52:24.258Z,7.05
2024-02-19T21:55:09.928Z,7.07
2024-02-19T21:57:55.488Z,7.06
2024-02-19T22:00:41.397Z,7.05
2024-02-19T22:03:26.953Z,7.07
2024-02-19T22:06:12.710Z,7.07
2024-02-19T22:09:01.937Z,7.05
2024-02-19T22:11:49.289Z,7.07
2024-02-19T22:14:35.030Z,7.07
2024-02-19T22:17:20.758Z,7.06
2024-02-19T22:20:10.988Z,7.05
2024-02-19T22:22:56.575Z,7.04
2024-02-19T22:25:42.656Z,7.02
2024-02-19T22:28:32.494Z,7.04
2024-02-19T22:31:17.961Z,7.07
2024-02-19T22:34:03.740Z,7.05
2024-02-19T22:36:49.303Z,7.06
2024-02-19T22:39:34.979Z,7.09
2024-02-19T22:42:20.456Z,7.10
2024-02-19T22:45:07.442Z,7.09
2024-02-19T22:47:53.138Z,7.07
2024-02-19T22:50:39.280Z,7.10
2024-02-19T22:53:24.670Z,7.10
2024-02-19T22:56:10.261Z,7.07
2024-02-19T22:59:06.506Z,7.11
2024-02-19T23:01:56.878Z,7.11
2024-02-19T23:04:44.057Z,7.11
2024-02-19T23:07:29.524Z,7.10
2024-02-19T23:10:15.012Z,7.11
2024-02-19T23:13:00.918Z,7.12
2024-02-19T23:15:46.486Z,7.15
2024-02-19T23:18:32.555Z,7.15
2024-02-19T23:21:18.181Z,7.16
2024-02-19T23:24:03.983Z,7.17
2024-02-19T23:26:49.630Z,7.17
2024-02-19T23:29:35.166Z,7.18
2024-02-19T23:32:20.913Z,7.20
2024-02-19T23:35:07.693Z,7.20
2024-02-19T23:37:54.469Z,7.19
2024-02-19T23:40:40.877Z,7.22
2024-02-19T23:43:27.323Z,7.20
2024-02-19T23:46:13.113Z,7.21
2024-02-19T23:48:59.151Z,7.21
2024-02-19T23:51:49.260Z,7.22
2024-02-19T23:54:36.036Z,7.23
2024-02-19T23:57:21.791Z,7.23
